sensor_id;sensor_type;location;lat;lon;timestamp;P1;durP1;ratioP1;P2;durP2;ratioP2
26600;SDS011;14241;49.260;10.496;2023-02-13T00:01:43;51.65;;;21.17;;
26600;SDS011;14241;49.260;10.496;2023-02-13T00:04:09;28.40;;;20.27;;
26600;SDS011;14241;49.260;10.496;2023-02-13T00:06:34;42.67;;;19.65;;
26600;SDS011;14241;49.260;10.496;2023-02-13T00:08:59;27.17;;;20.23;;
26600;SDS011;14241;49.260;10.496;2023-02-13T00:11:24;26.55;;;19.58;;
26600;SDS011;14241;49.260;10.496;2023-02-13T00:13:50;25.98;;;20.05;;
26600;SDS011;14241;49.260;10.496;2023-02-13T00:16:15;24.73;;;18.73;;
26600;SDS011;14241;49.260;10.496;2023-02-13T00:18:40;25.70;;;18.92;;
26600;SDS011;14241;49.260;10.496;2023-02-13T00:21:10;24.42;;;18.73;;
26600;SDS011;14241;49.260;10.496;2023-02-13T00:23:36;22.67;;;17.27;;
26600;SDS011;14241;49.260;10.496;2023-02-13T00:26:05;21.05;;;16.75;;
26600;SDS011;14241;49.260;10.496;2023-02-13T00:28:32;20.90;;;16.63;;
26600;SDS011;14241;49.260;10.496;2023-02-13T00:31:07;19.92;;;16.35;;
26600;SDS011;14241;49.260;10.496;2023-02-13T00:33:33;20.80;;;15.48;;
26600;SDS011;14241;49.260;10.496;2023-02-13T00:36:09;19.08;;;15.27;;
26600;SDS011;14241;49.260;10.496;2023-02-13T00:41:01;22.00;;;16.97;;
26600;SDS011;14241;49.260;10.496;2023-02-13T00:43:26;19.77;;;15.57;;
26600;SDS011;14241;49.260;10.496;2023-02-13T00:45:52;22.23;;;17.50;;
26600;SDS011;14241;49.260;10.496;2023-02-13T00:48:17;20.33;;;15.90;;
26600;SDS011;14241;49.260;10.496;2023-02-13T00:50:42;20.98;;;16.98;;
26600;SDS011;14241;49.260;10.496;2023-02-13T00:53:08;18.95;;;15.30;;
26600;SDS011;14241;49.260;10.496;2023-02-13T00:55:34;18.65;;;14.90;;
26600;SDS011;14241;49.260;10.496;2023-02-13T00:57:59;20.35;;;15.77;;
26600;SDS011;14241;49.260;10.496;2023-02-13T01:00:25;21.33;;;16.73;;
26600;SDS011;14241;49.260;10.496;2023-02-13T01:02:50;20.08;;;16.08;;
26600;SDS011;14241;49.260;10.496;2023-02-13T01:05:15;26.60;;;18.48;;
26600;SDS011;14241;49.260;10.496;2023-02-13T01:07:40;24.25;;;17.38;;
26600;SDS011;14241;49.260;10.496;2023-02-13T01:10:06;26.00;;;19.30;;
26600;SDS011;14241;49.260;10.496;2023-02-13T01:12:31;30.95;;;18.88;;
26600;SDS011;14241;49.260;10.496;2023-02-13T01:14:56;23.38;;;16.13;;
26600;SDS011;14241;49.260;10.496;2023-02-13T01:17:22;22.70;;;16.73;;
26600;SDS011;14241;49.260;10.496;2023-02-13T01:19:47;18.80;;;14.97;;
26600;SDS011;14241;49.260;10.496;2023-02-13T01:22:12;18.95;;;14.77;;
26600;SDS011;14241;49.260;10.496;2023-02-13T01:24:37;18.03;;;14.43;;
26600;SDS011;14241;49.260;10.496;2023-02-13T01:27:02;17.13;;;13.52;;
26600;SDS011;14241;49.260;10.496;2023-02-13T01:29:28;17.65;;;13.18;;
26600;SDS011;14241;49.260;10.496;2023-02-13T01:31:53;18.88;;;14.85;;
26600;SDS011;14241;49.260;10.496;2023-02-13T01:34:18;20.40;;;16.60;;
26600;SDS011;14241;49.260;10.496;2023-02-13T01:36:44;21.48;;;16.70;;
26600;SDS011;14241;49.260;10.496;2023-02-13T01:39:09;22.85;;;16.45;;
26600;SDS011;14241;49.260;10.496;2023-02-13T01:41:35;22.20;;;16.45;;
26600;SDS011;14241;49.260;10.496;2023-02-13T01:44:00;19.60;;;15.70;;
26600;SDS011;14241;49.260;10.496;2023-02-13T01:46:27;19.25;;;16.17;;
26600;SDS011;14241;49.260;10.496;2023-02-13T01:48:55;19.23;;;15.35;;
26600;SDS011;14241;49.260;10.496;2023-02-13T01:51:23;17.90;;;14.68;;
26600;SDS011;14241;49.260;10.496;2023-02-13T01:53:55;19.00;;;14.25;;
26600;SDS011;14241;49.260;10.496;2023-02-13T01:56:28;17.88;;;14.63;;
26600;SDS011;14241;49.260;10.496;2023-02-13T01:58:57;18.42;;;14.63;;
26600;SDS011;14241;49.260;10.496;2023-02-13T02:01:23;18.33;;;13.90;;
26600;SDS011;14241;49.260;10.496;2023-02-13T02:04:12;21.15;;;15.32;;
26600;SDS011;14241;49.260;10.496;2023-02-13T02:06:36;18.33;;;14.93;;
26600;SDS011;14241;49.260;10.496;2023-02-13T02:09:04;25.45;;;16.10;;
26600;SDS011;14241;49.260;10.496;2023-02-13T02:11:33;22.35;;;15.95;;
26600;SDS011;14241;49.260;10.496;2023-02-13T02:14:00;17.20;;;14.40;;
26600;SDS011;14241;49.260;10.496;2023-02-13T02:16:27;19.23;;;14.65;;
26600;SDS011;14241;49.260;10.496;2023-02-13T02:18:53;21.38;;;15.18;;
26600;SDS011;14241;49.260;10.496;2023-02-13T02:21:37;18.10;;;14.98;;
26600;SDS011;14241;49.260;10.496;2023-02-13T02:29:55;16.30;;;13.93;;
26600;SDS011;14241;49.260;10.496;2023-02-13T02:40:10;21.83;;;18.65;;
26600;SDS011;14241;49.260;10.496;2023-02-13T02:45:08;23.02;;;16.90;;
26600;SDS011;14241;49.260;10.496;2023-02-13T02:47:40;22.92;;;18.30;;
26600;SDS011;14241;49.260;10.496;2023-02-13T02:52:56;21.30;;;18.05;;
26600;SDS011;14241;49.260;10.496;2023-02-13T03:01:04;24.13;;;18.08;;
26600;SDS011;14241;49.260;10.496;2023-02-13T03:03:49;22.35;;;17.95;;
26600;SDS011;14241;49.260;10.496;2023-02-13T03:09:00;19.73;;;16.80;;
26600;SDS011;14241;49.260;10.496;2023-02-13T03:11:46;22.40;;;17.50;;
26600;SDS011;14241;49.260;10.496;2023-02-13T03:14:48;19.85;;;17.13;;
26600;SDS011;14241;49.260;10.496;2023-02-13T03:17:14;21.27;;;17.33;;
26600;SDS011;14241;49.260;10.496;2023-02-13T03:20:13;18.95;;;16.58;;
26600;SDS011;14241;49.260;10.496;2023-02-13T03:28:26;21.73;;;17.55;;
26600;SDS011;14241;49.260;10.496;2023-02-13T03:31:34;18.27;;;16.25;;
26600;SDS011;14241;49.260;10.496;2023-02-13T03:34:01;19.27;;;16.10;;
26600;SDS011;14241;49.260;10.496;2023-02-13T03:42:06;21.83;;;18.77;;
26600;SDS011;14241;49.260;10.496;2023-02-13T03:47:01;18.27;;;16.35;;
26600;SDS011;14241;49.260;10.496;2023-02-13T03:49:34;22.23;;;17.75;;
26600;SDS011;14241;49.260;10.496;2023-02-13T03:52:29;19.45;;;17.42;;
26600;SDS011;14241;49.260;10.496;2023-02-13T03:54:56;19.70;;;16.45;;
26600;SDS011;14241;49.260;10.496;2023-02-13T03:57:42;19.30;;;16.08;;
26600;SDS011;14241;49.260;10.496;2023-02-13T04:00:28;21.38;;;16.88;;
26600;SDS011;14241;49.260;10.496;2023-02-13T04:02:58;19.17;;;17.08;;
26600;SDS011;14241;49.260;10.496;2023-02-13T04:05:25;18.13;;;16.23;;
26600;SDS011;14241;49.260;10.496;2023-02-13T04:07:53;13.75;;;12.45;;
26600;SDS011;14241;49.260;10.496;2023-02-13T04:10:19;14.77;;;10.93;;
26600;SDS011;14241;49.260;10.496;2023-02-13T04:17:43;11.50;;;10.30;;
26600;SDS011;14241;49.260;10.496;2023-02-13T04:20:09;12.75;;;11.48;;
26600;SDS011;14241;49.260;10.496;2023-02-13T04:22:40;13.07;;;11.77;;
26600;SDS011;14241;49.260;10.496;2023-02-13T04:25:05;13.57;;;12.23;;
26600;SDS011;14241;49.260;10.496;2023-02-13T04:27:31;13.85;;;12.52;;
26600;SDS011;14241;49.260;10.496;2023-02-13T04:29:56;13.30;;;12.00;;
26600;SDS011;14241;49.260;10.496;2023-02-13T04:32:21;13.85;;;12.45;;
26600;SDS011;14241;49.260;10.496;2023-02-13T04:34:46;13.57;;;12.30;;
26600;SDS011;14241;49.260;10.496;2023-02-13T04:37:11;14.70;;;12.43;;
26600;SDS011;14241;49.260;10.496;2023-02-13T04:39:37;14.10;;;12.70;;
26600;SDS011;14241;49.260;10.496;2023-02-13T04:42:02;12.98;;;11.75;;
26600;SDS011;14241;49.260;10.496;2023-02-13T04:44:27;14.27;;;12.82;;
26600;SDS011;14241;49.260;10.496;2023-02-13T04:46:52;14.07;;;12.57;;
26600;SDS011;14241;49.260;10.496;2023-02-13T04:49:18;15.00;;;13.43;;
26600;SDS011;14241;49.260;10.496;2023-02-13T04:51:43;13.00;;;11.70;;
26600;SDS011;14241;49.260;10.496;2023-02-13T04:54:09;15.35;;;12.68;;
26600;SDS011;14241;49.260;10.496;2023-02-13T04:56:34;15.02;;;13.48;;
26600;SDS011;14241;49.260;10.496;2023-02-13T04:58:59;14.40;;;12.90;;
26600;SDS011;14241;49.260;10.496;2023-02-13T05:01:25;14.27;;;12.77;;
26600;SDS011;14241;49.260;10.496;2023-02-13T05:03:50;15.18;;;13.57;;
26600;SDS011;14241;49.260;10.496;2023-02-13T05:06:15;15.02;;;12.90;;
26600;SDS011;14241;49.260;10.496;2023-02-13T05:08:40;18.20;;;14.32;;
26600;SDS011;14241;49.260;10.496;2023-02-13T05:11:06;15.68;;;14.02;;
26600;SDS011;14241;49.260;10.496;2023-02-13T05:13:31;15.30;;;13.68;;
26600;SDS011;14241;49.260;10.496;2023-02-13T05:15:57;14.77;;;13.18;;
26600;SDS011;14241;49.260;10.496;2023-02-13T05:18:22;15.63;;;14.02;;
26600;SDS011;14241;49.260;10.496;2023-02-13T05:20:47;15.47;;;13.97;;
26600;SDS011;14241;49.260;10.496;2023-02-13T05:23:32;15.68;;;14.13;;
26600;SDS011;14241;49.260;10.496;2023-02-13T05:25:58;17.15;;;15.35;;
26600;SDS011;14241;49.260;10.496;2023-02-13T05:28:23;48.78;;;16.80;;
26600;SDS011;14241;49.260;10.496;2023-02-13T05:31:07;40.30;;;15.70;;
26600;SDS011;14241;49.260;10.496;2023-02-13T05:33:32;60.55;;;15.88;;
26600;SDS011;14241;49.260;10.496;2023-02-13T05:35:57;56.97;;;18.10;;
26600;SDS011;14241;49.260;10.496;2023-02-13T05:38:23;39.67;;;17.30;;
26600;SDS011;14241;49.260;10.496;2023-02-13T05:40:48;37.17;;;16.73;;
26600;SDS011;14241;49.260;10.496;2023-02-13T05:43:13;39.33;;;15.52;;
26600;SDS011;14241;49.260;10.496;2023-02-13T05:45:38;38.67;;;14.63;;
26600;SDS011;14241;49.260;10.496;2023-02-13T05:48:03;30.35;;;15.15;;
26600;SDS011;14241;49.260;10.496;2023-02-13T05:50:29;35.28;;;14.88;;
26600;SDS011;14241;49.260;10.496;2023-02-13T05:52:54;47.17;;;15.20;;
26600;SDS011;14241;49.260;10.496;2023-02-13T05:55:21;42.08;;;14.45;;
26600;SDS011;14241;49.260;10.496;2023-02-13T05:57:46;35.53;;;14.52;;
26600;SDS011;14241;49.260;10.496;2023-02-13T06:00:12;38.22;;;13.50;;
26600;SDS011;14241;49.260;10.496;2023-02-13T06:02:37;27.42;;;13.93;;
26600;SDS011;14241;49.260;10.496;2023-02-13T06:05:03;79.33;;;14.67;;
26600;SDS011;14241;49.260;10.496;2023-02-13T06:07:28;31.88;;;14.05;;
26600;SDS011;14241;49.260;10.496;2023-02-13T06:09:53;29.20;;;14.68;;
26600;SDS011;14241;49.260;10.496;2023-02-13T06:12:18;38.85;;;15.00;;
26600;SDS011;14241;49.260;10.496;2023-02-13T06:14:44;36.65;;;15.05;;
26600;SDS011;14241;49.260;10.496;2023-02-13T06:17:09;39.50;;;14.95;;
26600;SDS011;14241;49.260;10.496;2023-02-13T06:19:34;37.75;;;14.73;;
26600;SDS011;14241;49.260;10.496;2023-02-13T06:21:59;50.63;;;16.08;;
26600;SDS011;14241;49.260;10.496;2023-02-13T06:24:24;65.45;;;21.52;;
26600;SDS011;14241;49.260;10.496;2023-02-13T06:26:50;81.57;;;20.17;;
26600;SDS011;14241;49.260;10.496;2023-02-13T06:29:15;47.65;;;19.40;;
26600;SDS011;14241;49.260;10.496;2023-02-13T06:31:40;58.25;;;16.58;;
26600;SDS011;14241;49.260;10.496;2023-02-13T06:34:06;75.25;;;18.40;;
26600;SDS011;14241;49.260;10.496;2023-02-13T06:36:32;48.20;;;15.77;;
26600;SDS011;14241;49.260;10.496;2023-02-13T06:38:57;46.13;;;15.25;;
26600;SDS011;14241;49.260;10.496;2023-02-13T06:41:22;41.33;;;15.43;;
26600;SDS011;14241;49.260;10.496;2023-02-13T06:43:48;38.03;;;14.80;;
26600;SDS011;14241;49.260;10.496;2023-02-13T06:46:13;34.20;;;15.30;;
26600;SDS011;14241;49.260;10.496;2023-02-13T06:48:38;33.60;;;15.38;;
26600;SDS011;14241;49.260;10.496;2023-02-13T06:51:03;40.33;;;15.38;;
26600;SDS011;14241;49.260;10.496;2023-02-13T06:53:29;47.38;;;15.35;;
26600;SDS011;14241;49.260;10.496;2023-02-13T06:55:54;42.70;;;15.00;;
26600;SDS011;14241;49.260;10.496;2023-02-13T06:58:20;35.78;;;14.93;;
26600;SDS011;14241;49.260;10.496;2023-02-13T07:00:46;23.95;;;14.63;;
26600;SDS011;14241;49.260;10.496;2023-02-13T07:03:11;27.38;;;15.50;;
26600;SDS011;14241;49.260;10.496;2023-02-13T07:05:40;28.15;;;15.95;;
26600;SDS011;14241;49.260;10.496;2023-02-13T07:08:06;19.50;;;16.55;;
26600;SDS011;14241;49.260;10.496;2023-02-13T07:10:31;32.20;;;19.40;;
26600;SDS011;14241;49.260;10.496;2023-02-13T07:12:57;35.35;;;18.23;;
26600;SDS011;14241;49.260;10.496;2023-02-13T07:15:22;40.03;;;20.17;;
26600;SDS011;14241;49.260;10.496;2023-02-13T07:17:54;28.40;;;16.90;;
26600;SDS011;14241;49.260;10.496;2023-02-13T07:20:19;32.97;;;16.42;;
26600;SDS011;14241;49.260;10.496;2023-02-13T07:22:44;28.98;;;17.95;;
26600;SDS011;14241;49.260;10.496;2023-02-13T07:25:09;44.43;;;19.60;;
26600;SDS011;14241;49.260;10.496;2023-02-13T07:27:35;35.97;;;19.38;;
26600;SDS011;14241;49.260;10.496;2023-02-13T07:30:00;36.63;;;21.75;;
26600;SDS011;14241;49.260;10.496;2023-02-13T07:32:25;41.38;;;24.05;;
26600;SDS011;14241;49.260;10.496;2023-02-13T07:34:50;59.33;;;30.50;;
26600;SDS011;14241;49.260;10.496;2023-02-13T07:37:16;39.78;;;20.20;;
26600;SDS011;14241;49.260;10.496;2023-02-13T07:39:41;29.45;;;18.17;;
26600;SDS011;14241;49.260;10.496;2023-02-13T07:42:06;35.15;;;15.63;;
26600;SDS011;14241;49.260;10.496;2023-02-13T07:44:32;44.58;;;17.70;;
26600;SDS011;14241;49.260;10.496;2023-02-13T07:46:57;27.08;;;14.65;;
26600;SDS011;14241;49.260;10.496;2023-02-13T07:49:22;35.25;;;14.85;;
26600;SDS011;14241;49.260;10.496;2023-02-13T07:51:47;40.80;;;16.50;;
26600;SDS011;14241;49.260;10.496;2023-02-13T07:54:13;36.45;;;15.45;;
26600;SDS011;14241;49.260;10.496;2023-02-13T07:56:38;96.93;;;17.98;;
26600;SDS011;14241;49.260;10.496;2023-02-13T07:59:03;61.03;;;15.23;;
26600;SDS011;14241;49.260;10.496;2023-02-13T08:01:28;64.05;;;15.75;;
26600;SDS011;14241;49.260;10.496;2023-02-13T08:03:54;63.58;;;17.95;;
26600;SDS011;14241;49.260;10.496;2023-02-13T08:06:19;54.40;;;17.55;;
26600;SDS011;14241;49.260;10.496;2023-02-13T08:08:45;41.78;;;18.08;;
26600;SDS011;14241;49.260;10.496;2023-02-13T08:11:27;34.13;;;16.98;;
26600;SDS011;14241;49.260;10.496;2023-02-13T08:14:12;50.63;;;17.38;;
26600;SDS011;14241;49.260;10.496;2023-02-13T08:16:38;103.10;;;17.83;;
26600;SDS011;14241;49.260;10.496;2023-02-13T08:19:03;70.80;;;17.73;;
26600;SDS011;14241;49.260;10.496;2023-02-13T08:21:29;69.65;;;17.42;;
26600;SDS011;14241;49.260;10.496;2023-02-13T08:23:54;87.20;;;18.27;;
26600;SDS011;14241;49.260;10.496;2023-02-13T08:26:19;47.25;;;17.70;;
26600;SDS011;14241;49.260;10.496;2023-02-13T08:28:44;71.35;;;17.20;;
26600;SDS011;14241;49.260;10.496;2023-02-13T08:31:10;48.65;;;17.13;;
26600;SDS011;14241;49.260;10.496;2023-02-13T08:33:35;55.45;;;16.50;;
26600;SDS011;14241;49.260;10.496;2023-02-13T08:36:04;44.58;;;18.90;;
26600;SDS011;14241;49.260;10.496;2023-02-13T08:38:30;67.30;;;17.92;;
26600;SDS011;14241;49.260;10.496;2023-02-13T08:40:55;69.80;;;16.87;;
26600;SDS011;14241;49.260;10.496;2023-02-13T08:43:21;48.85;;;19.83;;
26600;SDS011;14241;49.260;10.496;2023-02-13T08:45:46;78.05;;;19.65;;
26600;SDS011;14241;49.260;10.496;2023-02-13T08:48:11;63.45;;;20.05;;
26600;SDS011;14241;49.260;10.496;2023-02-13T08:50:36;97.28;;;19.15;;
26600;SDS011;14241;49.260;10.496;2023-02-13T08:53:02;85.45;;;19.90;;
26600;SDS011;14241;49.260;10.496;2023-02-13T08:55:27;77.20;;;18.90;;
26600;SDS011;14241;49.260;10.496;2023-02-13T08:57:53;56.78;;;18.90;;
26600;SDS011;14241;49.260;10.496;2023-02-13T09:00:19;85.63;;;18.90;;
26600;SDS011;14241;49.260;10.496;2023-02-13T09:02:44;68.53;;;18.15;;
26600;SDS011;14241;49.260;10.496;2023-02-13T09:05:09;119.17;;;19.03;;
26600;SDS011;14241;49.260;10.496;2023-02-13T09:07:34;113.32;;;17.10;;
26600;SDS011;14241;49.260;10.496;2023-02-13T09:10:00;79.18;;;17.70;;
26600;SDS011;14241;49.260;10.496;2023-02-13T09:12:25;58.20;;;17.80;;
26600;SDS011;14241;49.260;10.496;2023-02-13T09:14:50;73.30;;;17.03;;
26600;SDS011;14241;49.260;10.496;2023-02-13T09:17:16;72.78;;;17.00;;
26600;SDS011;14241;49.260;10.496;2023-02-13T09:19:43;67.43;;;16.90;;
26600;SDS011;14241;49.260;10.496;2023-02-13T09:22:10;78.78;;;17.38;;
26600;SDS011;14241;49.260;10.496;2023-02-13T09:24:35;68.03;;;15.80;;
26600;SDS011;14241;49.260;10.496;2023-02-13T09:27:01;78.83;;;17.70;;
26600;SDS011;14241;49.260;10.496;2023-02-13T09:29:28;61.85;;;17.83;;
26600;SDS011;14241;49.260;10.496;2023-02-13T09:31:55;56.35;;;16.30;;
26600;SDS011;14241;49.260;10.496;2023-02-13T09:34:20;44.10;;;15.60;;
26600;SDS011;14241;49.260;10.496;2023-02-13T09:36:49;59.60;;;17.27;;
26600;SDS011;14241;49.260;10.496;2023-02-13T09:39:15;46.42;;;15.80;;
26600;SDS011;14241;49.260;10.496;2023-02-13T09:41:41;46.65;;;16.30;;
26600;SDS011;14241;49.260;10.496;2023-02-13T09:46:35;23.60;;;13.93;;
26600;SDS011;14241;49.260;10.496;2023-02-13T09:49:04;34.42;;;13.63;;
26600;SDS011;14241;49.260;10.496;2023-02-13T09:51:31;30.30;;;13.43;;
26600;SDS011;14241;49.260;10.496;2023-02-13T09:53:58;25.30;;;13.48;;
26600;SDS011;14241;49.260;10.496;2023-02-13T09:56:28;45.55;;;14.32;;
26600;SDS011;14241;49.260;10.496;2023-02-13T09:58:58;34.40;;;15.40;;
26600;SDS011;14241;49.260;10.496;2023-02-13T10:03:53;24.05;;;14.25;;
26600;SDS011;14241;49.260;10.496;2023-02-13T10:06:28;20.92;;;13.50;;
26600;SDS011;14241;49.260;10.496;2023-02-13T10:16:41;24.85;;;13.80;;
26600;SDS011;14241;49.260;10.496;2023-02-13T10:21:48;18.83;;;13.82;;
26600;SDS011;14241;49.260;10.496;2023-02-13T10:24:39;23.70;;;14.60;;
26600;SDS011;14241;49.260;10.496;2023-02-13T10:27:15;17.02;;;13.70;;
26600;SDS011;14241;49.260;10.496;2023-02-13T10:29:43;25.33;;;14.00;;
26600;SDS011;14241;49.260;10.496;2023-02-13T10:32:31;22.40;;;13.93;;
26600;SDS011;14241;49.260;10.496;2023-02-13T10:34:59;22.27;;;14.60;;
26600;SDS011;14241;49.260;10.496;2023-02-13T10:37:26;24.83;;;16.23;;
26600;SDS011;14241;49.260;10.496;2023-02-13T10:39:52;28.48;;;17.75;;
26600;SDS011;14241;49.260;10.496;2023-02-13T10:57:26;17.45;;;13.75;;
26600;SDS011;14241;49.260;10.496;2023-02-13T11:02:27;17.52;;;14.52;;
26600;SDS011;14241;49.260;10.496;2023-02-13T11:05:00;20.27;;;14.10;;
26600;SDS011;14241;49.260;10.496;2023-02-13T11:07:26;20.92;;;13.57;;
26600;SDS011;14241;49.260;10.496;2023-02-13T11:09:54;18.15;;;13.80;;
26600;SDS011;14241;49.260;10.496;2023-02-13T11:14:55;18.92;;;13.95;;
26600;SDS011;14241;49.260;10.496;2023-02-13T11:17:21;15.93;;;13.20;;
26600;SDS011;14241;49.260;10.496;2023-02-13T11:19:48;16.17;;;12.95;;
26600;SDS011;14241;49.260;10.496;2023-02-13T11:22:25;20.50;;;14.40;;
26600;SDS011;14241;49.260;10.496;2023-02-13T11:24:52;15.73;;;13.63;;
26600;SDS011;14241;49.260;10.496;2023-02-13T11:27:21;17.83;;;13.43;;
26600;SDS011;14241;49.260;10.496;2023-02-13T11:29:54;18.83;;;13.25;;
26600;SDS011;14241;49.260;10.496;2023-02-13T11:32:27;16.52;;;13.77;;
26600;SDS011;14241;49.260;10.496;2023-02-13T11:34:53;17.13;;;13.95;;
26600;SDS011;14241;49.260;10.496;2023-02-13T11:37:23;19.83;;;14.15;;
26600;SDS011;14241;49.260;10.496;2023-02-13T11:39:50;17.55;;;14.65;;
26600;SDS011;14241;49.260;10.496;2023-02-13T11:42:40;17.58;;;14.73;;
26600;SDS011;14241;49.260;10.496;2023-02-13T11:45:07;16.58;;;14.20;;
26600;SDS011;14241;49.260;10.496;2023-02-13T11:47:44;16.35;;;13.88;;
26600;SDS011;14241;49.260;10.496;2023-02-13T11:55:38;18.05;;;14.32;;
26600;SDS011;14241;49.260;10.496;2023-02-13T11:58:20;17.67;;;13.82;;
26600;SDS011;14241;49.260;10.496;2023-02-13T12:00:46;18.17;;;14.05;;
26600;SDS011;14241;49.260;10.496;2023-02-13T12:05:40;24.23;;;14.73;;
26600;SDS011;14241;49.260;10.496;2023-02-13T12:08:07;21.00;;;15.30;;
26600;SDS011;14241;49.260;10.496;2023-02-13T12:10:32;19.13;;;15.07;;
26600;SDS011;14241;49.260;10.496;2023-02-13T12:15:35;20.67;;;17.20;;
26600;SDS011;14241;49.260;10.496;2023-02-13T12:20:32;23.48;;;15.98;;
26600;SDS011;14241;49.260;10.496;2023-02-13T12:23:06;18.63;;;14.73;;
26600;SDS011;14241;49.260;10.496;2023-02-13T12:43:28;16.45;;;14.00;;
26600;SDS011;14241;49.260;10.496;2023-02-13T12:51:24;17.98;;;14.75;;
26600;SDS011;14241;49.260;10.496;2023-02-13T12:56:22;17.90;;;14.38;;
26600;SDS011;14241;49.260;10.496;2023-02-13T13:06:34;19.97;;;14.00;;
26600;SDS011;14241;49.260;10.496;2023-02-13T13:09:05;20.73;;;14.07;;
26600;SDS011;14241;49.260;10.496;2023-02-13T13:11:45;20.77;;;15.57;;
26600;SDS011;14241;49.260;10.496;2023-02-13T13:14:27;22.45;;;14.25;;
26600;SDS011;14241;49.260;10.496;2023-02-13T13:22:20;19.35;;;15.05;;
26600;SDS011;14241;49.260;10.496;2023-02-13T13:27:27;20.10;;;13.93;;
26600;SDS011;14241;49.260;10.496;2023-02-13T13:29:54;20.08;;;15.20;;
26600;SDS011;14241;49.260;10.496;2023-02-13T13:32:21;22.95;;;15.63;;
26600;SDS011;14241;49.260;10.496;2023-02-13T13:34:47;21.42;;;15.48;;
26600;SDS011;14241;49.260;10.496;2023-02-13T13:37:18;20.92;;;16.02;;
26600;SDS011;14241;49.260;10.496;2023-02-13T13:42:32;20.38;;;15.57;;
26600;SDS011;14241;49.260;10.496;2023-02-13T13:50:24;22.90;;;16.52;;
26600;SDS011;14241;49.260;10.496;2023-02-13T13:56:16;20.17;;;16.25;;
26600;SDS011;14241;49.260;10.496;2023-02-13T13:58:23;22.10;;;16.50;;
26600;SDS011;14241;49.260;10.496;2023-02-13T14:01:31;23.52;;;15.57;;
26600;SDS011;14241;49.260;10.496;2023-02-13T14:03:37;20.95;;;15.85;;
26600;SDS011;14241;49.260;10.496;2023-02-13T14:06:04;19.55;;;15.73;;
26600;SDS011;14241;49.260;10.496;2023-02-13T14:08:52;23.38;;;16.50;;
26600;SDS011;14241;49.260;10.496;2023-02-13T14:13:50;20.30;;;15.43;;
26600;SDS011;14241;49.260;10.496;2023-02-13T14:16:35;19.92;;;14.63;;
26600;SDS011;14241;49.260;10.496;2023-02-13T14:19:00;21.65;;;16.77;;
26600;SDS011;14241;49.260;10.496;2023-02-13T14:21:25;21.10;;;15.80;;
26600;SDS011;14241;49.260;10.496;2023-02-13T14:23:51;22.10;;;16.95;;
26600;SDS011;14241;49.260;10.496;2023-02-13T14:26:25;21.20;;;15.57;;
26600;SDS011;14241;49.260;10.496;2023-02-13T14:31:22;22.17;;;15.67;;
26600;SDS011;14241;49.260;10.496;2023-02-13T14:33:59;21.35;;;15.40;;
26600;SDS011;14241;49.260;10.496;2023-02-13T14:38:57;20.50;;;15.20;;
26600;SDS011;14241;49.260;10.496;2023-02-13T14:46:56;22.55;;;15.57;;
26600;SDS011;14241;49.260;10.496;2023-02-13T14:49:23;22.10;;;15.57;;
26600;SDS011;14241;49.260;10.496;2023-02-13T14:54:58;23.48;;;16.85;;
26600;SDS011;14241;49.260;10.496;2023-02-13T14:57:04;24.40;;;16.13;;
26600;SDS011;14241;49.260;10.496;2023-02-13T14:59:31;23.27;;;15.32;;
26600;SDS011;14241;49.260;10.496;2023-02-13T15:02:22;22.00;;;15.82;;
26600;SDS011;14241;49.260;10.496;2023-02-13T15:04:47;21.58;;;15.45;;
26600;SDS011;14241;49.260;10.496;2023-02-13T15:07:20;23.80;;;16.77;;
26600;SDS011;14241;49.260;10.496;2023-02-13T15:10:00;23.48;;;16.80;;
26600;SDS011;14241;49.260;10.496;2023-02-13T15:12:35;23.90;;;17.15;;
26600;SDS011;14241;49.260;10.496;2023-02-13T15:15:02;25.95;;;17.00;;
26600;SDS011;14241;49.260;10.496;2023-02-13T15:17:41;22.00;;;16.45;;
26600;SDS011;14241;49.260;10.496;2023-02-13T15:20:13;23.52;;;16.05;;
26600;SDS011;14241;49.260;10.496;2023-02-13T15:22:44;23.65;;;16.40;;
26600;SDS011;14241;49.260;10.496;2023-02-13T15:25:21;24.10;;;16.38;;
26600;SDS011;14241;49.260;10.496;2023-02-13T15:27:49;23.27;;;16.60;;
26600;SDS011;14241;49.260;10.496;2023-02-13T15:30:22;26.45;;;17.75;;
26600;SDS011;14241;49.260;10.496;2023-02-13T15:32:58;28.05;;;18.88;;
26600;SDS011;14241;49.260;10.496;2023-02-13T15:35:28;43.83;;;27.90;;
26600;SDS011;14241;49.260;10.496;2023-02-13T15:37:55;27.60;;;18.73;;
26600;SDS011;14241;49.260;10.496;2023-02-13T15:42:54;32.65;;;23.70;;
26600;SDS011;14241;49.260;10.496;2023-02-13T15:45:20;32.08;;;22.70;;
26600;SDS011;14241;49.260;10.496;2023-02-13T15:47:46;27.10;;;20.60;;
26600;SDS011;14241;49.260;10.496;2023-02-13T15:50:33;29.60;;;21.98;;
26600;SDS011;14241;49.260;10.496;2023-02-13T15:52:58;30.33;;;23.23;;
26600;SDS011;14241;49.260;10.496;2023-02-13T15:55:25;32.17;;;23.73;;
26600;SDS011;14241;49.260;10.496;2023-02-13T15:57:52;37.15;;;25.23;;
26600;SDS011;14241;49.260;10.496;2023-02-13T16:00:29;34.10;;;25.25;;
26600;SDS011;14241;49.260;10.496;2023-02-13T16:02:55;33.13;;;24.23;;
26600;SDS011;14241;49.260;10.496;2023-02-13T16:05:21;35.67;;;24.27;;
26600;SDS011;14241;49.260;10.496;2023-02-13T16:07:49;37.20;;;24.70;;
26600;SDS011;14241;49.260;10.496;2023-02-13T16:10:31;35.83;;;26.10;;
26600;SDS011;14241;49.260;10.496;2023-02-13T16:12:57;37.67;;;26.80;;
26600;SDS011;14241;49.260;10.496;2023-02-13T16:15:24;37.50;;;28.33;;
26600;SDS011;14241;49.260;10.496;2023-02-13T16:17:52;40.83;;;29.13;;
26600;SDS011;14241;49.260;10.496;2023-02-13T16:20:18;38.28;;;27.50;;
26600;SDS011;14241;49.260;10.496;2023-02-13T16:22:46;39.85;;;29.10;;
26600;SDS011;14241;49.260;10.496;2023-02-13T16:30:40;37.33;;;26.58;;
26600;SDS011;14241;49.260;10.496;2023-02-13T16:35:31;41.40;;;30.92;;
26600;SDS011;14241;49.260;10.496;2023-02-13T16:37:59;41.17;;;31.00;;
26600;SDS011;14241;49.260;10.496;2023-02-13T16:42:51;42.97;;;33.03;;
26600;SDS011;14241;49.260;10.496;2023-02-13T16:45:20;39.00;;;28.60;;
26600;SDS011;14241;49.260;10.496;2023-02-13T16:47:46;41.53;;;28.52;;
26600;SDS011;14241;49.260;10.496;2023-02-13T16:50:12;39.25;;;28.23;;
26600;SDS011;14241;49.260;10.496;2023-02-13T16:52:38;37.55;;;25.65;;
26600;SDS011;14241;49.260;10.496;2023-02-13T16:55:04;37.03;;;27.85;;
26600;SDS011;14241;49.260;10.496;2023-02-13T16:57:33;36.92;;;25.80;;
26600;SDS011;14241;49.260;10.496;2023-02-13T17:00:00;36.40;;;26.83;;
26600;SDS011;14241;49.260;10.496;2023-02-13T17:02:27;37.67;;;27.27;;
26600;SDS011;14241;49.260;10.496;2023-02-13T17:04:53;37.15;;;26.90;;
26600;SDS011;14241;49.260;10.496;2023-02-13T17:07:20;39.17;;;28.10;;
26600;SDS011;14241;49.260;10.496;2023-02-13T17:09:53;40.00;;;28.17;;
26600;SDS011;14241;49.260;10.496;2023-02-13T17:12:18;40.40;;;28.45;;
26600;SDS011;14241;49.260;10.496;2023-02-13T17:14:44;38.85;;;28.92;;